Time;durP1;ratioP1;P1;durP2;ratioP2;P2;SDS_P1;SDS_P2;PMS_P1;PMS_P2;Temp;Humidity;BMP_temperature;BMP_pressure;BME280_temperature;BME280_humidity;BME280_pressure;Samples;Min_cycle;Max_cycle;Signal;HPM_P1;HPM_P2
2022/11/22 17:44:54;;;;;;;12.20;2.78;;;12.90;59.90;;;;;;7170909;23;20143;-66
2022/11/22 17:47:55;;;;;;;6.28;2.55;;;12.90;59.90;;;;;;6107550;29;20451;-65
2022/11/22 17:50:55;;;;;;;6.50;2.10;;;13.00;60.70;;;;;;6107083;29;20039;-65
2022/11/22 17:53:57;;;;;;;14.75;3.30;;;13.00;59.80;;;;;;6124115;29;20035;-64
2022/11/22 17:56:58;;;;;;;8.48;2.65;;;13.00;59.80;;;;;;6088554;29;20043;-64
2022/11/22 17:59:59;;;;;;;12.90;2.90;;;13.00;59.80;;;;;;6109237;29;20457;-64
2022/11/22 18:02:59;;;;;;;7.85;2.70;;;13.00;59.70;;;;;;6124081;29;20036;-66
2022/11/22 18:06:01;;;;;;;10.88;2.85;;;13.10;59.70;;;;;;6068072;29;20032;-65
2022/11/22 18:09:02;;;;;;;10.73;2.67;;;13.10;59.70;;;;;;6104122;29;20040;-65
2022/11/22 18:12:03;;;;;;;9.93;3.90;;;13.10;59.70;;;;;;6106123;29;20457;-64
2022/11/22 18:15:05;;;;;;;13.25;3.70;;;13.00;59.70;;;;;;6122507;29;20357;-66
2022/11/22 18:18:06;;;;;;;12.15;4.65;;;13.10;59.80;;;;;;6103602;29;20445;-64
2022/11/22 18:21:07;;;;;;;8.10;3.55;;;13.00;59.90;;;;;;6106903;29;20035;-64
2022/11/22 18:24:08;;;;;;;14.00;4.50;;;13.00;60.10;;;;;;6103813;29;20055;-64
2022/11/22 18:27:09;;;;;;;14.00;5.32;;;12.90;60.50;;;;;;6103238;29;20071;-64
2022/11/22 18:30:11;;;;;;;11.48;4.63;;;12.80;60.90;;;;;;6072839;29;20032;-66
2022/11/22 18:33:13;;;;;;;17.38;4.53;;;12.80;61.30;;;;;;6099366;29;20040;-65
2022/11/22 18:36:21;;;;;;;14.50;4.95;;;12.70;61.60;;;;;;6073911;28;20098;-65
2022/11/22 18:39:22;;;;;;;10.77;3.95;;;12.70;61.90;;;;;;6083729;29;20039;-65
2022/11/22 18:42:23;;;;;;;14.63;3.80;;;12.60;62.20;;;;;;6099905;29;20465;-65
2022/11/22 18:45:29;;;;;;;7.78;2.83;;;12.60;62.20;;;;;;6102784;29;20043;-65
2022/11/22 18:48:30;;;;;;;11.52;3.65;;;12.50;62.40;;;;;;6120470;29;20055;-65
2022/11/22 18:51:31;;;;;;;10.50;3.65;;;12.50;62.50;;;;;;6087636;29;20480;-63
2022/11/22 18:54:32;;;;;;;7.53;3.28;;;12.50;62.70;;;;;;6116172;29;20044;-65
2022/11/22 18:57:33;;;;;;;13.05;4.22;;;12.40;62.70;;;;;;6103866;29;20044;-66
2022/11/22 19:00:34;;;;;;;9.40;3.75;;;12.40;62.50;;;;;;6104132;29;20249;-65
2022/11/22 19:03:36;;;;;;;8.13;3.25;;;12.40;62.50;;;;;;6103045;29;20059;-65
2022/11/22 19:06:37;;;;;;;9.18;4.00;;;12.40;62.40;;;;;;6119108;29;20468;-66
2022/11/22 19:09:38;;;;;;;5.70;3.08;;;12.40;62.70;;;;;;6102191;29;20030;-66
2022/11/22 19:12:39;;;;;;;6.97;2.95;;;12.40;62.40;;;;;;6102533;29;20031;-65
2022/11/22 19:15:40;;;;;;;11.73;3.65;;;12.40;62.50;;;;;;6098961;29;20094;-65
2022/11/22 19:18:41;;;;;;;10.45;3.63;;;12.30;62.50;;;;;;6113408;29;20024;-66
2022/11/22 19:21:42;;;;;;;8.13;3.78;;;12.30;62.50;;;;;;6119317;29;20115;-66
2022/11/22 19:24:43;;;;;;;12.43;4.75;;;12.30;62.60;;;;;;6065885;29;20043;-66
2022/11/22 19:27:47;;;;;;;7.60;4.20;;;12.30;62.80;;;;;;6083824;29;20071;-66
2022/11/22 19:30:48;;;;;;;10.25;3.75;;;12.30;62.80;;;;;;6066754;29;20135;-67
2022/11/22 19:33:49;;;;;;;11.32;4.95;;;12.10;62.70;;;;;;6081749;28;20052;-65
2022/11/22 19:36:50;;;;;;;16.50;5.55;;;12.30;62.80;;;;;;6080529;29;20051;-66
2022/11/22 19:39:51;;;;;;;14.80;5.60;;;12.30;62.80;;;;;;6059986;29;20436;-66
2022/11/22 19:42:51;;;;;;;14.45;5.70;;;12.30;62.80;;;;;;6050957;29;20040;-66
2022/11/22 19:45:58;;;;;;;13.93;5.13;;;12.30;62.60;;;;;;6075894;28;20064;-66
2022/11/22 19:49:02;;;;;;;14.55;5.82;;;12.40;62.50;;;;;;6069610;29;20475;-66
2022/11/22 19:52:03;;;;;;;14.23;5.00;;;12.40;62.40;;;;;;6081381;29;20036;-64
2022/11/22 19:55:05;;;;;;;18.98;4.80;;;12.40;62.50;;;;;;6079876;29;20051;-64
2022/11/22 19:58:06;;;;;;;11.23;4.95;;;12.40;62.40;;;;;;6083957;29;20414;-64
2022/11/22 20:01:10;;;;;;;14.60;5.30;;;12.40;62.30;;;;;;6060491;29;20047;-65
2022/11/22 20:04:13;;;;;;;14.68;5.22;;;12.40;62.30;;;;;;6036845;29;20071;-64
2022/11/22 20:07:14;;;;;;;13.20;5.53;;;12.40;62.10;;;;;;6051193;29;20039;-64
2022/11/22 20:10:15;;;;;;;18.83;6.38;;;12.40;62.10;;;;;;6023032;29;20103;-64
2022/11/22 20:13:16;;;;;;;12.43;5.18;;;12.40;62.20;;;;;;6008357;29;20035;-64
2022/11/22 20:16:22;;;;;;;13.07;5.07;;;12.30;62.10;;;;;;6004229;29;20896;-63
2022/11/22 20:19:23;;;;;;;16.77;4.93;;;12.30;62.10;;;;;;6000344;29;20043;-67
2022/11/22 20:22:24;;;;;;;13.07;4.43;;;12.20;62.10;;;;;;5999241;29;22493;-64
2022/11/22 20:25:25;;;;;;;11.18;4.88;;;12.10;62.20;;;;;;5997443;29;20635;-67
2022/11/22 20:28:26;;;;;;;14.63;5.07;;;12.10;62.40;;;;;;6016924;29;20154;-63
2022/11/22 20:31:30;;;;;;;18.35;6.40;;;12.00;62.50;;;;;;6023287;29;20139;-64
2022/11/22 20:34:32;;;;;;;8.57;4.32;;;12.00;62.50;;;;;;6033544;29;20055;-63
2022/11/22 20:37:34;;;;;;;13.25;6.20;;;11.90;62.60;;;;;;6034707;29;20055;-64
2022/11/22 20:40:35;;;;;;;13.90;5.10;;;11.90;62.90;;;;;;6071351;29;20048;-64
2022/11/22 20:43:37;;;;;;;17.77;6.45;;;11.80;62.80;;;;;;6081282;29;20107;-64
2022/11/22 20:46:39;;;;;;;19.02;5.82;;;11.80;62.80;;;;;;6092583;29;20063;-64
2022/11/22 20:49:40;;;;;;;14.15;5.28;;;11.70;62.90;;;;;;6094969;29;20047;-64
2022/11/22 20:52:41;;;;;;;17.52;6.40;;;11.70;63.00;;;;;;6082750;29;20028;-65
2022/11/22 20:55:42;;;;;;;17.08;5.75;;;11.70;63.00;;;;;;6062251;29;20040;-64
2022/11/22 20:58:44;;;;;;;10.90;4.53;;;11.70;63.10;;;;;;6063348;29;20036;-63
2022/11/22 21:01:45;;;;;;;11.35;4.07;;;11.60;63.80;;;;;;6062463;28;20040;-62
2022/11/22 21:04:46;;;;;;;11.45;3.92;;;11.50;63.00;;;;;;6063724;28;20048;-63
2022/11/22 21:07:47;;;;;;;11.48;4.95;;;11.50;63.00;;;;;;6061709;29;20099;-64
2022/11/22 21:10:48;;;;;;;12.10;5.32;;;11.50;63.20;;;;;;6059740;29;21080;-64
2022/11/22 21:13:50;;;;;;;12.38;5.03;;;11.40;63.40;;;;;;6033612;29;20378;-63
2022/11/22 21:16:51;;;;;;;12.55;4.50;;;11.40;63.50;;;;;;6025920;29;20433;-64
2022/11/22 21:19:52;;;;;;;14.15;5.00;;;11.30;63.60;;;;;;6028757;29;20052;-62
2022/11/22 21:22:53;;;;;;;12.50;5.18;;;11.30;63.70;;;;;;6030715;28;20586;-63
2022/11/22 21:25:54;;;;;;;17.08;4.70;;;11.30;63.80;;;;;;6046084;29;20044;-64
2022/11/22 21:28:56;;;;;;;13.55;5.65;;;11.30;63.90;;;;;;6030369;29;20047;-63
2022/11/22 21:31:56;;;;;;;22.27;6.38;;;11.30;64.00;;;;;;6031988;28;20056;-63
2022/11/22 21:34:57;;;;;;;15.13;6.00;;;11.20;64.00;;;;;;6045106;29;20127;-63
2022/11/22 21:37:58;;;;;;;11.18;5.60;;;11.20;64.20;;;;;;6026869;29;20989;-63
2022/11/22 21:41:01;;;;;;;14.30;5.82;;;11.20;64.30;;;;;;6030933;29;20178;-66
2022/11/22 21:44:02;;;;;;;22.67;5.75;;;11.10;65.30;;;;;;6063463;28;20127;-63
2022/11/22 21:47:03;;;;;;;18.55;6.68;;;11.10;64.70;;;;;;6041735;29;20044;-64
2022/11/22 21:50:04;;;;;;;15.32;6.65;;;11.00;65.00;;;;;;6032271;29;20132;-64
2022/11/22 21:53:05;;;;;;;21.85;6.32;;;11.00;64.90;;;;;;6003801;29;20048;-64
2022/11/22 21:56:08;;;;;;;17.65;7.07;;;11.00;65.00;;;;;;6032581;28;20051;-65
2022/11/22 21:59:10;;;;;;;17.35;6.75;;;10.90;65.00;;;;;;6031649;29;20040;-65
2022/11/22 22:02:11;;;;;;;11.77;5.55;;;10.90;65.10;;;;;;6027193;29;20513;-63
2022/11/22 22:05:12;;;;;;;15.05;6.68;;;10.90;65.90;;;;;;6013109;29;20052;-64
2022/11/22 22:08:13;;;;;;;12.63;6.10;;;10.90;65.10;;;;;;5994954;29;20048;-63
2022/11/22 22:11:14;;;;;;;16.00;6.90;;;10.90;65.10;;;;;;5988723;29;21587;-64
2022/11/22 22:14:16;;;;;;;14.95;6.32;;;10.90;65.00;;;;;;5993983;29;21364;-64
2022/11/22 22:17:16;;;;;;;13.05;5.75;;;10.90;65.00;;;;;;6018830;29;20076;-65
2022/11/22 22:20:18;;;;;;;13.63;5.40;;;10.90;65.00;;;;;;6029520;28;20075;-64
2022/11/22 22:23:20;;;;;;;16.65;6.22;;;10.90;65.10;;;;;;6060824;29;20135;-65
2022/11/22 22:26:21;;;;;;;26.65;5.07;;;10.80;65.10;;;;;;6037561;29;20075;-64
2022/11/22 22:29:22;;;;;;;16.30;6.38;;;10.80;65.10;;;;;;6032275;29;20040;-65
2022/11/22 22:32:24;;;;;;;16.35;6.25;;;10.70;65.20;;;;;;6061550;29;20068;-64
2022/11/22 22:35:25;;;;;;;17.92;6.53;;;10.70;65.40;;;;;;6048877;29;20048;-64
2022/11/22 22:38:26;;;;;;;14.93;5.07;;;10.70;65.50;;;;;;6097810;29;20092;-64
2022/11/22 22:41:27;;;;;;;13.27;5.25;;;10.60;65.40;;;;;;6093297;29;20355;-63
2022/11/22 22:44:28;;;;;;;11.27;4.40;;;10.70;65.30;;;;;;6098315;29;20334;-66
2022/11/22 22:47:30;;;;;;;14.90;5.20;;;10.60;65.10;;;;;;6085467;29;20047;-64
2022/11/22 22:50:32;;;;;;;17.95;5.53;;;10.60;65.00;;;;;;6092935;29;20032;-63
2022/11/22 22:53:34;;;;;;;12.40;4.70;;;10.50;65.10;;;;;;6085829;29;20036;-64
2022/11/22 22:56:35;;;;;;;10.68;3.65;;;10.40;65.00;;;;;;6063784;29;20056;-63
2022/11/22 22:59:36;;;;;;;9.82;3.78;;;10.40;64.90;;;;;;6048261;29;20044;-64
2022/11/22 23:02:37;;;;;;;12.68;4.70;;;10.30;65.00;;;;;;6061556;28;20107;-63
2022/11/22 23:05:39;;;;;;;9.98;3.80;;;10.20;65.00;;;;;;6062757;29;20131;-64
2022/11/22 23:08:44;;;;;;;10.73;4.65;;;10.20;65.10;;;;;;6063835;29;20048;-63
2022/11/22 23:15:05;;;;;;;23.33;5.90;;;10.10;65.10;;;;;;6061591;29;20706;-63
2022/11/22 23:18:07;;;;;;;15.00;5.57;;;10.10;65.20;;;;;;6046492;29;20052;-64
2022/11/22 23:21:11;;;;;;;13.43;4.80;;;10.10;65.30;;;;;;6062140;29;20127;-65
2022/11/22 23:24:12;;;;;;;10.80;4.85;;;10.00;65.30;;;;;;6076339;29;20048;-63
2022/11/22 23:27:13;;;;;;;10.38;4.60;;;10.00;65.40;;;;;;6094843;29;20055;-63
2022/11/22 23:30:15;;;;;;;11.15;5.43;;;9.90;65.60;;;;;;6097515;29;20040;-62
2022/11/22 23:33:16;;;;;;;7.68;4.20;;;9.80;65.70;;;;;;6097950;29;20457;-62
2022/11/22 23:36:18;;;;;;;11.70;4.72;;;9.80;65.90;;;;;;6101301;29;20047;-63
2022/11/22 23:39:19;;;;;;;14.05;5.25;;;9.80;66.10;;;;;;6082340;29;20032;-62
2022/11/22 23:42:20;;;;;;;8.45;3.80;;;9.80;66.10;;;;;;6098463;29;20123;-63
2022/11/22 23:45:21;;;;;;;7.43;4.35;;;9.80;66.20;;;;;;6093609;29;20545;-63
2022/11/22 23:48:22;;;;;;;16.02;4.72;;;9.80;66.10;;;;;;6122905;29;20044;-63
2022/11/22 23:51:24;;;;;;;13.52;4.47;;;9.80;66.00;;;;;;6122213;29;20123;-63
2022/11/22 23:54:25;;;;;;;11.55;5.05;;;9.80;66.00;;;;;;6121900;29;20040;-63
2022/11/22 23:57:26;;;;;;;9.63;5.43;;;9.80;65.90;;;;;;6107252;29;20382;-63
